sensor_id;sensor_type;location;lat;lon;timestamp;temperature;humidity
36416;DHT22;22447;44.530;18.620;2022-10-16T00:00:39;9.80;99.90
36416;DHT22;22447;44.530;18.620;2022-10-16T00:03:06;9.70;99.90
36416;DHT22;22447;44.530;18.620;2022-10-16T00:05:33;9.60;99.90
36416;DHT22;22447;44.530;18.620;2022-10-16T00:08:03;9.70;99.90
36416;DHT22;22447;44.530;18.620;2022-10-16T00:10:29;9.70;99.90
36416;DHT22;22447;44.530;18.620;2022-10-16T00:12:55;9.70;99.90
36416;DHT22;22447;44.530;18.620;2022-10-16T00:15:21;9.70;99.90
36416;DHT22;22447;44.530;18.620;2022-10-16T00:17:47;9.70;99.90
36416;DHT22;22447;44.530;18.620;2022-10-16T00:20:13;9.60;99.90
36416;DHT22;22447;44.530;18.620;2022-10-16T00:22:39;9.50;99.90
36416;DHT22;22447;44.530;18.620;2022-10-16T00:25:06;9.50;99.90
36416;DHT22;22447;44.530;18.620;2022-10-16T00:27:32;9.50;99.90
36416;DHT22;22447;44.530;18.620;2022-10-16T00:29:58;9.40;99.90
36416;DHT22;22447;44.530;18.620;2022-10-16T00:32:24;9.40;99.90
36416;DHT22;22447;44.530;18.620;2022-10-16T00:34:50;9.20;99.90
36416;DHT22;22447;44.530;18.620;2022-10-16T00:37:16;9.10;99.90
36416;DHT22;22447;44.530;18.620;2022-10-16T00:39:42;9.20;99.90
36416;DHT22;22447;44.530;18.620;2022-10-16T00:42:14;9.20;99.90
36416;DHT22;22447;44.530;18.620;2022-10-16T00:47:22;9.30;99.90
36416;DHT22;22447;44.530;18.620;2022-10-16T00:49:51;9.40;99.90
36416;DHT22;22447;44.530;18.620;2022-10-16T00:52:19;9.30;99.90
36416;DHT22;22447;44.530;18.620;2022-10-16T00:54:46;9.30;99.90
36416;DHT22;22447;44.530;18.620;2022-10-16T00:57:13;9.40;99.90
36416;DHT22;22447;44.530;18.620;2022-10-16T00:59:40;9.40;99.90
36416;DHT22;22447;44.530;18.620;2022-10-16T01:02:10;9.30;99.90
36416;DHT22;22447;44.530;18.620;2022-10-16T01:04:43;9.30;99.90
36416;DHT22;22447;44.530;18.620;2022-10-16T01:12:55;9.20;99.90
36416;DHT22;22447;44.530;18.620;2022-10-16T01:15:30;9.10;99.90
36416;DHT22;22447;44.530;18.620;2022-10-16T01:20:33;9.10;99.90
36416;DHT22;22447;44.530;18.620;2022-10-16T01:28:30;8.90;99.90
36416;DHT22;22447;44.530;18.620;2022-10-16T01:30:59;8.90;99.90
36416;DHT22;22447;44.530;18.620;2022-10-16T01:33:34;8.90;99.90
36416;DHT22;22447;44.530;18.620;2022-10-16T01:36:11;8.80;99.90
36416;DHT22;22447;44.530;18.620;2022-10-16T01:38:40;8.80;99.90
36416;DHT22;22447;44.530;18.620;2022-10-16T01:41:11;8.70;99.90
36416;DHT22;22447;44.530;18.620;2022-10-16T01:43:46;8.70;99.90
36416;DHT22;22447;44.530;18.620;2022-10-16T01:46:13;8.70;99.90
36416;DHT22;22447;44.530;18.620;2022-10-16T01:48:41;8.80;99.90
36416;DHT22;22447;44.530;18.620;2022-10-16T01:51:11;8.70;99.90
36416;DHT22;22447;44.530;18.620;2022-10-16T01:53:39;8.70;99.90
36416;DHT22;22447;44.530;18.620;2022-10-16T01:56:09;8.70;99.90
36416;DHT22;22447;44.530;18.620;2022-10-16T01:58:40;8.70;99.90
36416;DHT22;22447;44.530;18.620;2022-10-16T02:01:08;8.70;99.90
36416;DHT22;22447;44.530;18.620;2022-10-16T02:03:37;8.60;99.90
36416;DHT22;22447;44.530;18.620;2022-10-16T02:06:05;8.60;99.90
36416;DHT22;22447;44.530;18.620;2022-10-16T02:08:31;8.50;99.90
36416;DHT22;22447;44.530;18.620;2022-10-16T02:10:58;8.50;99.90
36416;DHT22;22447;44.530;18.620;2022-10-16T02:13:37;8.40;99.90
36416;DHT22;22447;44.530;18.620;2022-10-16T02:16:05;8.40;99.90
36416;DHT22;22447;44.530;18.620;2022-10-16T02:18:32;8.40;99.90
36416;DHT22;22447;44.530;18.620;2022-10-16T02:26:09;8.30;99.90
36416;DHT22;22447;44.530;18.620;2022-10-16T02:28:45;8.50;99.90
36416;DHT22;22447;44.530;18.620;2022-10-16T02:31:16;8.60;99.90
36416;DHT22;22447;44.530;18.620;2022-10-16T02:33:46;8.60;99.90
36416;DHT22;22447;44.530;18.620;2022-10-16T02:36:12;8.50;99.90
36416;DHT22;22447;44.530;18.620;2022-10-16T02:38:39;8.40;99.90
36416;DHT22;22447;44.530;18.620;2022-10-16T02:41:05;8.30;99.90
36416;DHT22;22447;44.530;18.620;2022-10-16T02:43:31;8.30;99.90
36416;DHT22;22447;44.530;18.620;2022-10-16T02:45:59;8.20;99.90
36416;DHT22;22447;44.530;18.620;2022-10-16T02:48:25;8.30;99.90
36416;DHT22;22447;44.530;18.620;2022-10-16T02:50:51;8.30;99.90
36416;DHT22;22447;44.530;18.620;2022-10-16T02:53:17;8.30;99.90
36416;DHT22;22447;44.530;18.620;2022-10-16T02:55:43;8.40;99.90
36416;DHT22;22447;44.530;18.620;2022-10-16T02:58:09;8.50;99.90
36416;DHT22;22447;44.530;18.620;2022-10-16T03:00:35;8.40;99.90
36416;DHT22;22447;44.530;18.620;2022-10-16T03:03:01;8.30;99.90
36416;DHT22;22447;44.530;18.620;2022-10-16T03:05:27;8.20;99.90
36416;DHT22;22447;44.530;18.620;2022-10-16T03:07:53;8.20;99.90
36416;DHT22;22447;44.530;18.620;2022-10-16T03:10:19;8.20;99.90
36416;DHT22;22447;44.530;18.620;2022-10-16T03:12:45;8.10;99.90
36416;DHT22;22447;44.530;18.620;2022-10-16T03:15:10;8.10;99.90
36416;DHT22;22447;44.530;18.620;2022-10-16T03:17:36;8.10;99.90
36416;DHT22;22447;44.530;18.620;2022-10-16T03:20:03;8.10;99.90
36416;DHT22;22447;44.530;18.620;2022-10-16T03:22:29;8.10;99.90
36416;DHT22;22447;44.530;18.620;2022-10-16T03:24:55;8.10;99.90
36416;DHT22;22447;44.530;18.620;2022-10-16T03:27:21;8.20;99.90
36416;DHT22;22447;44.530;18.620;2022-10-16T03:29:47;8.30;99.90
36416;DHT22;22447;44.530;18.620;2022-10-16T03:32:13;8.20;99.90
36416;DHT22;22447;44.530;18.620;2022-10-16T03:34:38;8.20;99.90
36416;DHT22;22447;44.530;18.620;2022-10-16T03:37:04;8.20;99.90
36416;DHT22;22447;44.530;18.620;2022-10-16T03:39:30;8.30;99.90
36416;DHT22;22447;44.530;18.620;2022-10-16T03:41:56;8.20;99.90
36416;DHT22;22447;44.530;18.620;2022-10-16T03:44:22;8.20;99.90
36416;DHT22;22447;44.530;18.620;2022-10-16T03:46:48;8.10;99.90
36416;DHT22;22447;44.530;18.620;2022-10-16T03:49:14;8.10;99.90
36416;DHT22;22447;44.530;18.620;2022-10-16T03:51:40;8.10;99.90
36416;DHT22;22447;44.530;18.620;2022-10-16T03:54:06;8.10;99.90
36416;DHT22;22447;44.530;18.620;2022-10-16T03:56:32;7.90;99.90
36416;DHT22;22447;44.530;18.620;2022-10-16T03:58:58;7.90;99.90
36416;DHT22;22447;44.530;18.620;2022-10-16T04:01:24;7.80;99.90
36416;DHT22;22447;44.530;18.620;2022-10-16T04:03:50;7.80;99.90
36416;DHT22;22447;44.530;18.620;2022-10-16T04:06:16;7.80;99.90
36416;DHT22;22447;44.530;18.620;2022-10-16T04:08:43;7.80;99.90
36416;DHT22;22447;44.530;18.620;2022-10-16T04:11:09;7.80;99.90
36416;DHT22;22447;44.530;18.620;2022-10-16T04:13:35;7.60;99.90
36416;DHT22;22447;44.530;18.620;2022-10-16T04:16:01;7.60;99.90
36416;DHT22;22447;44.530;18.620;2022-10-16T04:18:27;7.50;99.90
36416;DHT22;22447;44.530;18.620;2022-10-16T04:20:54;7.50;99.90
36416;DHT22;22447;44.530;18.620;2022-10-16T04:23:20;7.50;99.90
36416;DHT22;22447;44.530;18.620;2022-10-16T04:25:48;7.60;99.90
36416;DHT22;22447;44.530;18.620;2022-10-16T04:28:14;7.50;99.90
36416;DHT22;22447;44.530;18.620;2022-10-16T04:30:40;7.50;99.90
36416;DHT22;22447;44.530;18.620;2022-10-16T04:33:08;7.50;99.90
36416;DHT22;22447;44.530;18.620;2022-10-16T04:35:34;7.50;99.90
36416;DHT22;22447;44.530;18.620;2022-10-16T04:38:00;7.50;99.90
36416;DHT22;22447;44.530;18.620;2022-10-16T04:40:26;7.60;99.90
36416;DHT22;22447;44.530;18.620;2022-10-16T04:42:52;7.60;99.90
36416;DHT22;22447;44.530;18.620;2022-10-16T04:45:18;7.70;99.90
36416;DHT22;22447;44.530;18.620;2022-10-16T04:47:43;7.80;99.90
36416;DHT22;22447;44.530;18.620;2022-10-16T04:50:09;7.70;99.90
36416;DHT22;22447;44.530;18.620;2022-10-16T04:52:36;7.70;99.90
36416;DHT22;22447;44.530;18.620;2022-10-16T04:55:02;7.70;99.90
36416;DHT22;22447;44.530;18.620;2022-10-16T04:57:29;7.70;99.90
36416;DHT22;22447;44.530;18.620;2022-10-16T04:59:55;7.60;99.90
36416;DHT22;22447;44.530;18.620;2022-10-16T05:02:21;7.60;99.90
36416;DHT22;22447;44.530;18.620;2022-10-16T05:04:47;7.60;99.90
36416;DHT22;22447;44.530;18.620;2022-10-16T05:07:13;7.60;99.90
36416;DHT22;22447;44.530;18.620;2022-10-16T05:09:39;7.70;99.90
36416;DHT22;22447;44.530;18.620;2022-10-16T05:12:05;7.60;99.90
36416;DHT22;22447;44.530;18.620;2022-10-16T05:14:31;7.80;99.90
36416;DHT22;22447;44.530;18.620;2022-10-16T05:16:57;7.70;99.90
36416;DHT22;22447;44.530;18.620;2022-10-16T05:19:23;7.70;99.90
36416;DHT22;22447;44.530;18.620;2022-10-16T05:21:49;7.60;99.90
36416;DHT22;22447;44.530;18.620;2022-10-16T05:24:15;7.60;99.90
36416;DHT22;22447;44.530;18.620;2022-10-16T05:26:40;7.70;99.90
36416;DHT22;22447;44.530;18.620;2022-10-16T05:29:06;8.10;99.90
36416;DHT22;22447;44.530;18.620;2022-10-16T05:31:32;8.60;99.90
36416;DHT22;22447;44.530;18.620;2022-10-16T05:33:59;9.00;99.90
36416;DHT22;22447;44.530;18.620;2022-10-16T05:36:25;9.70;99.90
36416;DHT22;22447;44.530;18.620;2022-10-16T05:38:51;10.40;99.90
36416;DHT22;22447;44.530;18.620;2022-10-16T05:41:19;10.70;99.90
36416;DHT22;22447;44.530;18.620;2022-10-16T05:43:49;11.00;99.90
36416;DHT22;22447;44.530;18.620;2022-10-16T05:46:15;11.60;99.90
36416;DHT22;22447;44.530;18.620;2022-10-16T05:48:41;11.90;99.90
36416;DHT22;22447;44.530;18.620;2022-10-16T05:51:09;12.00;99.90
36416;DHT22;22447;44.530;18.620;2022-10-16T05:53:36;12.50;99.90
36416;DHT22;22447;44.530;18.620;2022-10-16T05:56:03;13.10;99.90
36416;DHT22;22447;44.530;18.620;2022-10-16T06:01:01;13.30;99.90
36416;DHT22;22447;44.530;18.620;2022-10-16T06:03:27;13.10;99.90
36416;DHT22;22447;44.530;18.620;2022-10-16T06:05:53;13.30;99.90
36416;DHT22;22447;44.530;18.620;2022-10-16T06:08:21;13.40;99.90
36416;DHT22;22447;44.530;18.620;2022-10-16T06:10:47;13.10;99.90
36416;DHT22;22447;44.530;18.620;2022-10-16T06:13:14;13.40;99.90
36416;DHT22;22447;44.530;18.620;2022-10-16T06:15:42;13.80;99.90
36416;DHT22;22447;44.530;18.620;2022-10-16T06:18:08;13.70;99.90
36416;DHT22;22447;44.530;18.620;2022-10-16T06:20:35;13.90;99.90
36416;DHT22;22447;44.530;18.620;2022-10-16T06:23:01;13.80;99.90
36416;DHT22;22447;44.530;18.620;2022-10-16T06:25:27;13.90;99.90
36416;DHT22;22447;44.530;18.620;2022-10-16T06:27:53;14.10;99.90
36416;DHT22;22447;44.530;18.620;2022-10-16T06:30:19;14.70;99.90
36416;DHT22;22447;44.530;18.620;2022-10-16T06:32:45;14.90;98.70
36416;DHT22;22447;44.530;18.620;2022-10-16T06:35:10;15.30;99.30
36416;DHT22;22447;44.530;18.620;2022-10-16T06:37:36;15.20;95.80
36416;DHT22;22447;44.530;18.620;2022-10-16T06:40:02;14.70;98.20
36416;DHT22;22447;44.530;18.620;2022-10-16T06:42:30;14.60;99.50
36416;DHT22;22447;44.530;18.620;2022-10-16T06:44:56;15.00;98.70
36416;DHT22;22447;44.530;18.620;2022-10-16T06:47:22;15.50;98.50
36416;DHT22;22447;44.530;18.620;2022-10-16T06:49:47;15.90;96.60
36416;DHT22;22447;44.530;18.620;2022-10-16T06:52:13;16.30;93.90
36416;DHT22;22447;44.530;18.620;2022-10-16T06:54:39;16.60;94.20
36416;DHT22;22447;44.530;18.620;2022-10-16T06:57:05;16.70;92.90
36416;DHT22;22447;44.530;18.620;2022-10-16T06:59:31;17.10;92.20
36416;DHT22;22447;44.530;18.620;2022-10-16T07:01:57;17.40;92.00
36416;DHT22;22447;44.530;18.620;2022-10-16T07:04:23;17.00;91.40
36416;DHT22;22447;44.530;18.620;2022-10-16T07:06:48;17.10;90.90
36416;DHT22;22447;44.530;18.620;2022-10-16T07:09:14;17.30;90.40
36416;DHT22;22447;44.530;18.620;2022-10-16T07:11:40;17.40;91.20
36416;DHT22;22447;44.530;18.620;2022-10-16T07:14:15;17.60;89.40
36416;DHT22;22447;44.530;18.620;2022-10-16T07:16:42;18.10;87.30
36416;DHT22;22447;44.530;18.620;2022-10-16T07:19:08;18.60;84.80
36416;DHT22;22447;44.530;18.620;2022-10-16T07:21:34;18.80;84.30
36416;DHT22;22447;44.530;18.620;2022-10-16T07:24:06;18.90;82.30
36416;DHT22;22447;44.530;18.620;2022-10-16T07:26:35;18.50;83.50
36416;DHT22;22447;44.530;18.620;2022-10-16T07:29:02;18.90;84.40
36416;DHT22;22447;44.530;18.620;2022-10-16T07:31:29;19.40;81.70
36416;DHT22;22447;44.530;18.620;2022-10-16T07:33:55;19.40;79.30
36416;DHT22;22447;44.530;18.620;2022-10-16T07:36:23;20.00;78.00
36416;DHT22;22447;44.530;18.620;2022-10-16T07:38:49;20.10;77.70
36416;DHT22;22447;44.530;18.620;2022-10-16T07:41:17;20.30;76.30
36416;DHT22;22447;44.530;18.620;2022-10-16T07:43:47;20.10;76.00
36416;DHT22;22447;44.530;18.620;2022-10-16T07:46:14;20.40;75.60
36416;DHT22;22447;44.530;18.620;2022-10-16T07:48:40;20.40;74.60
36416;DHT22;22447;44.530;18.620;2022-10-16T07:51:07;20.50;74.80
36416;DHT22;22447;44.530;18.620;2022-10-16T07:53:33;20.40;73.90
36416;DHT22;22447;44.530;18.620;2022-10-16T07:56:00;20.80;73.70
36416;DHT22;22447;44.530;18.620;2022-10-16T07:58:30;20.20;73.50
36416;DHT22;22447;44.530;18.620;2022-10-16T08:00:56;20.60;74.00
36416;DHT22;22447;44.530;18.620;2022-10-16T08:03:23;20.90;72.20
36416;DHT22;22447;44.530;18.620;2022-10-16T08:05:49;21.40;71.40
36416;DHT22;22447;44.530;18.620;2022-10-16T08:08:17;21.60;72.90
36416;DHT22;22447;44.530;18.620;2022-10-16T08:10:44;21.40;69.60
36416;DHT22;22447;44.530;18.620;2022-10-16T08:13:10;21.40;69.20
36416;DHT22;22447;44.530;18.620;2022-10-16T08:15:36;21.90;68.90
36416;DHT22;22447;44.530;18.620;2022-10-16T08:18:03;22.20;66.40
36416;DHT22;22447;44.530;18.620;2022-10-16T08:20:33;22.30;67.70
36416;DHT22;22447;44.530;18.620;2022-10-16T08:23:01;22.80;66.00
36416;DHT22;22447;44.530;18.620;2022-10-16T08:25:28;22.70;65.40
36416;DHT22;22447;44.530;18.620;2022-10-16T08:27:55;23.00;66.50
36416;DHT22;22447;44.530;18.620;2022-10-16T08:30:23;23.00;63.20
36416;DHT22;22447;44.530;18.620;2022-10-16T08:32:49;23.20;64.60
36416;DHT22;22447;44.530;18.620;2022-10-16T08:35:15;23.80;63.40
36416;DHT22;22447;44.530;18.620;2022-10-16T08:37:42;23.90;61.50
36416;DHT22;22447;44.530;18.620;2022-10-16T08:40:17;24.20;60.90
36416;DHT22;22447;44.530;18.620;2022-10-16T08:48:20;24.30;59.40
36416;DHT22;22447;44.530;18.620;2022-10-16T08:50:48;24.80;58.40
36416;DHT22;22447;44.530;18.620;2022-10-16T08:53:20;25.20;57.50
36416;DHT22;22447;44.530;18.620;2022-10-16T08:55:53;25.60;57.60
36416;DHT22;22447;44.530;18.620;2022-10-16T08:58:22;24.90;56.50
36416;DHT22;22447;44.530;18.620;2022-10-16T09:01:00;25.10;57.00
36416;DHT22;22447;44.530;18.620;2022-10-16T09:06:43;25.50;55.60
36416;DHT22;22447;44.530;18.620;2022-10-16T09:11:53;25.80;57.00
36416;DHT22;22447;44.530;18.620;2022-10-16T09:14:37;26.10;55.10
36416;DHT22;22447;44.530;18.620;2022-10-16T09:17:37;26.60;54.70
36416;DHT22;22447;44.530;18.620;2022-10-16T09:22:46;26.60;52.10
36416;DHT22;22447;44.530;18.620;2022-10-16T09:25:14;26.90;51.10
36416;DHT22;22447;44.530;18.620;2022-10-16T09:27:43;26.40;53.30
36416;DHT22;22447;44.530;18.620;2022-10-16T09:30:13;26.30;52.60
36416;DHT22;22447;44.530;18.620;2022-10-16T09:32:41;26.50;52.80
36416;DHT22;22447;44.530;18.620;2022-10-16T09:35:20;26.60;52.60
36416;DHT22;22447;44.530;18.620;2022-10-16T09:37:49;27.20;52.10
36416;DHT22;22447;44.530;18.620;2022-10-16T09:40:33;27.10;52.00
36416;DHT22;22447;44.530;18.620;2022-10-16T09:45:32;27.20;50.50
36416;DHT22;22447;44.530;18.620;2022-10-16T09:48:07;27.10;50.60
36416;DHT22;22447;44.530;18.620;2022-10-16T09:50:35;27.20;49.30
36416;DHT22;22447;44.530;18.620;2022-10-16T09:53:19;26.70;50.20
36416;DHT22;22447;44.530;18.620;2022-10-16T09:55:57;27.20;49.30
36416;DHT22;22447;44.530;18.620;2022-10-16T09:58:23;27.80;46.90
36416;DHT22;22447;44.530;18.620;2022-10-16T10:00:54;28.30;47.90
36416;DHT22;22447;44.530;18.620;2022-10-16T10:03:37;28.40;45.70
36416;DHT22;22447;44.530;18.620;2022-10-16T10:06:25;28.30;46.50
36416;DHT22;22447;44.530;18.620;2022-10-16T10:09:00;28.00;44.20
36416;DHT22;22447;44.530;18.620;2022-10-16T10:11:47;28.50;43.40
36416;DHT22;22447;44.530;18.620;2022-10-16T10:14:25;28.00;42.60
36416;DHT22;22447;44.530;18.620;2022-10-16T10:17:02;27.70;42.50
36416;DHT22;22447;44.530;18.620;2022-10-16T10:19:28;28.00;42.60
36416;DHT22;22447;44.530;18.620;2022-10-16T10:21:53;27.90;43.60
36416;DHT22;22447;44.530;18.620;2022-10-16T10:24:20;28.30;43.60
36416;DHT22;22447;44.530;18.620;2022-10-16T10:27:05;28.60;42.70
36416;DHT22;22447;44.530;18.620;2022-10-16T10:29:49;29.10;41.40
36416;DHT22;22447;44.530;18.620;2022-10-16T10:32:40;29.10;41.10
36416;DHT22;22447;44.530;18.620;2022-10-16T10:35:14;29.20;40.50
36416;DHT22;22447;44.530;18.620;2022-10-16T10:40:48;29.10;40.10
36416;DHT22;22447;44.530;18.620;2022-10-16T10:43:20;29.40;39.80
36416;DHT22;22447;44.530;18.620;2022-10-16T10:45:48;28.70;40.60
36416;DHT22;22447;44.530;18.620;2022-10-16T10:53:52;29.40;41.10
36416;DHT22;22447;44.530;18.620;2022-10-16T11:02:38;30.10;37.90
36416;DHT22;22447;44.530;18.620;2022-10-16T11:07:54;30.60;36.40
36416;DHT22;22447;44.530;18.620;2022-10-16T11:15:51;30.80;36.40
36416;DHT22;22447;44.530;18.620;2022-10-16T11:19:03;30.30;36.70
36416;DHT22;22447;44.530;18.620;2022-10-16T11:21:36;29.70;37.50
36416;DHT22;22447;44.530;18.620;2022-10-16T11:24:11;29.80;35.50
36416;DHT22;22447;44.530;18.620;2022-10-16T11:26:41;29.80;34.90
36416;DHT22;22447;44.530;18.620;2022-10-16T11:29:14;30.30;35.60
36416;DHT22;22447;44.530;18.620;2022-10-16T11:32:04;30.60;35.70
36416;DHT22;22447;44.530;18.620;2022-10-16T11:37:19;30.40;32.80
36416;DHT22;22447;44.530;18.620;2022-10-16T11:39:48;29.90;32.30
36416;DHT22;22447;44.530;18.620;2022-10-16T11:42:34;30.30;33.80
36416;DHT22;22447;44.530;18.620;2022-10-16T11:47:54;31.00;33.00
36416;DHT22;22447;44.530;18.620;2022-10-16T11:55:54;30.30;35.40
36416;DHT22;22447;44.530;18.620;2022-10-16T11:58:36;30.30;36.20
36416;DHT22;22447;44.530;18.620;2022-10-16T12:01:16;30.80;36.40
36416;DHT22;22447;44.530;18.620;2022-10-16T12:04:16;31.30;36.90
36416;DHT22;22447;44.530;18.620;2022-10-16T12:07:02;30.40;35.20
36416;DHT22;22447;44.530;18.620;2022-10-16T12:09:30;30.80;36.40
36416;DHT22;22447;44.530;18.620;2022-10-16T12:11:57;30.70;35.90
36416;DHT22;22447;44.530;18.620;2022-10-16T12:14:40;30.50;35.30
36416;DHT22;22447;44.530;18.620;2022-10-16T12:17:34;30.70;35.70
36416;DHT22;22447;44.530;18.620;2022-10-16T12:20:26;29.80;35.80
36416;DHT22;22447;44.530;18.620;2022-10-16T12:22:56;30.10;36.00
36416;DHT22;22447;44.530;18.620;2022-10-16T12:25:28;30.40;35.10
36416;DHT22;22447;44.530;18.620;2022-10-16T12:30:28;29.50;35.90
36416;DHT22;22447;44.530;18.620;2022-10-16T12:32:57;29.60;36.40
36416;DHT22;22447;44.530;18.620;2022-10-16T12:35:26;29.90;37.40
36416;DHT22;22447;44.530;18.620;2022-10-16T12:37:53;29.50;38.80
36416;DHT22;22447;44.530;18.620;2022-10-16T12:40:32;29.70;36.20
36416;DHT22;22447;44.530;18.620;2022-10-16T12:43:11;29.40;36.30
36416;DHT22;22447;44.530;18.620;2022-10-16T12:45:37;29.90;37.70
36416;DHT22;22447;44.530;18.620;2022-10-16T12:48:21;30.20;36.50
36416;DHT22;22447;44.530;18.620;2022-10-16T12:50:48;30.00;36.40
36416;DHT22;22447;44.530;18.620;2022-10-16T12:53:25;30.10;36.70
36416;DHT22;22447;44.530;18.620;2022-10-16T12:56:24;30.40;36.50
36416;DHT22;22447;44.530;18.620;2022-10-16T12:59:03;30.10;36.20
36416;DHT22;22447;44.530;18.620;2022-10-16T13:01:55;29.10;36.40
36416;DHT22;22447;44.530;18.620;2022-10-16T13:04:40;29.10;36.90
36416;DHT22;22447;44.530;18.620;2022-10-16T13:07:21;29.00;38.40
36416;DHT22;22447;44.530;18.620;2022-10-16T13:10:08;29.50;37.60
36416;DHT22;22447;44.530;18.620;2022-10-16T13:12:50;29.50;38.40
36416;DHT22;22447;44.530;18.620;2022-10-16T13:15:47;29.40;37.40
36416;DHT22;22447;44.530;18.620;2022-10-16T13:18:25;28.40;39.10
36416;DHT22;22447;44.530;18.620;2022-10-16T13:23:55;28.60;40.40
36416;DHT22;22447;44.530;18.620;2022-10-16T13:29:00;28.20;39.20
36416;DHT22;22447;44.530;18.620;2022-10-16T13:31:28;28.60;39.90
36416;DHT22;22447;44.530;18.620;2022-10-16T13:33:56;28.30;39.70
36416;DHT22;22447;44.530;18.620;2022-10-16T13:36:43;28.40;38.70
36416;DHT22;22447;44.530;18.620;2022-10-16T13:39:25;28.40;39.50
36416;DHT22;22447;44.530;18.620;2022-10-16T13:42:04;28.40;39.80
36416;DHT22;22447;44.530;18.620;2022-10-16T13:44:39;28.20;39.60
36416;DHT22;22447;44.530;18.620;2022-10-16T13:47:19;28.60;39.50
36416;DHT22;22447;44.530;18.620;2022-10-16T13:49:46;28.20;40.10
36416;DHT22;22447;44.530;18.620;2022-10-16T13:52:20;28.20;40.40
36416;DHT22;22447;44.530;18.620;2022-10-16T13:54:47;28.30;40.20
36416;DHT22;22447;44.530;18.620;2022-10-16T13:57:17;28.30;42.10
36416;DHT22;22447;44.530;18.620;2022-10-16T13:59:43;28.30;41.30
36416;DHT22;22447;44.530;18.620;2022-10-16T14:02:38;28.30;39.40
36416;DHT22;22447;44.530;18.620;2022-10-16T14:05:09;28.30;39.50
36416;DHT22;22447;44.530;18.620;2022-10-16T14:07:36;28.40;39.00
36416;DHT22;22447;44.530;18.620;2022-10-16T14:10:18;28.20;40.10
36416;DHT22;22447;44.530;18.620;2022-10-16T14:12:57;28.00;41.70
36416;DHT22;22447;44.530;18.620;2022-10-16T14:15:24;28.00;40.70
36416;DHT22;22447;44.530;18.620;2022-10-16T14:17:51;28.00;39.80
36416;DHT22;22447;44.530;18.620;2022-10-16T14:20:20;27.80;41.50
36416;DHT22;22447;44.530;18.620;2022-10-16T14:22:46;27.90;41.70
36416;DHT22;22447;44.530;18.620;2022-10-16T14:25:26;27.70;43.00
36416;DHT22;22447;44.530;18.620;2022-10-16T14:28:04;27.30;45.40
36416;DHT22;22447;44.530;18.620;2022-10-16T14:30:34;27.00;47.30
36416;DHT22;22447;44.530;18.620;2022-10-16T14:33:05;26.60;49.20
36416;DHT22;22447;44.530;18.620;2022-10-16T14:35:38;26.10;50.20
36416;DHT22;22447;44.530;18.620;2022-10-16T14:38:05;25.90;51.30
36416;DHT22;22447;44.530;18.620;2022-10-16T14:40:37;25.80;51.50
36416;DHT22;22447;44.530;18.620;2022-10-16T14:43:04;25.70;51.10
36416;DHT22;22447;44.530;18.620;2022-10-16T14:45:33;25.50;52.20
36416;DHT22;22447;44.530;18.620;2022-10-16T14:48:05;25.40;53.80
36416;DHT22;22447;44.530;18.620;2022-10-16T14:50:32;25.00;55.30
36416;DHT22;22447;44.530;18.620;2022-10-16T14:52:58;24.70;57.20
36416;DHT22;22447;44.530;18.620;2022-10-16T14:55:25;24.50;58.00
36416;DHT22;22447;44.530;18.620;2022-10-16T14:57:51;24.30;60.10
36416;DHT22;22447;44.530;18.620;2022-10-16T15:00:20;24.00;60.10
36416;DHT22;22447;44.530;18.620;2022-10-16T15:02:48;24.00;59.80
36416;DHT22;22447;44.530;18.620;2022-10-16T15:05:25;23.90;60.60
36416;DHT22;22447;44.530;18.620;2022-10-16T15:07:54;23.60;63.10
36416;DHT22;22447;44.530;18.620;2022-10-16T15:10:22;23.50;63.10
36416;DHT22;22447;44.530;18.620;2022-10-16T15:12:48;23.30;63.50
36416;DHT22;22447;44.530;18.620;2022-10-16T15:17:50;23.00;64.20
36416;DHT22;22447;44.530;18.620;2022-10-16T15:20:25;22.80;66.40
36416;DHT22;22447;44.530;18.620;2022-10-16T15:22:51;22.40;67.90
36416;DHT22;22447;44.530;18.620;2022-10-16T15:25:53;22.20;68.70
36416;DHT22;22447;44.530;18.620;2022-10-16T15:28:21;22.00;70.80
36416;DHT22;22447;44.530;18.620;2022-10-16T15:30:53;21.90;71.60
36416;DHT22;22447;44.530;18.620;2022-10-16T15:33:21;21.60;74.00
36416;DHT22;22447;44.530;18.620;2022-10-16T15:35:50;21.50;76.60
36416;DHT22;22447;44.530;18.620;2022-10-16T15:38:18;21.20;79.50
36416;DHT22;22447;44.530;18.620;2022-10-16T15:40:44;20.80;82.90
36416;DHT22;22447;44.530;18.620;2022-10-16T15:43:10;20.70;87.10
36416;DHT22;22447;44.530;18.620;2022-10-16T15:45:37;20.50;90.30
36416;DHT22;22447;44.530;18.620;2022-10-16T15:48:03;20.40;91.20
36416;DHT22;22447;44.530;18.620;2022-10-16T15:50:30;20.20;92.60
36416;DHT22;22447;44.530;18.620;2022-10-16T15:52:56;20.00;95.10
36416;DHT22;22447;44.530;18.620;2022-10-16T15:55:22;19.70;97.00
36416;DHT22;22447;44.530;18.620;2022-10-16T15:57:48;19.50;99.20
36416;DHT22;22447;44.530;18.620;2022-10-16T16:00:19;19.30;99.90
36416;DHT22;22447;44.530;18.620;2022-10-16T16:03:00;19.20;99.90
36416;DHT22;22447;44.530;18.620;2022-10-16T16:05:39;19.00;99.90
36416;DHT22;22447;44.530;18.620;2022-10-16T16:08:06;18.80;99.90
36416;DHT22;22447;44.530;18.620;2022-10-16T16:10:32;18.70;99.90
36416;DHT22;22447;44.530;18.620;2022-10-16T16:12:58;18.60;99.90
36416;DHT22;22447;44.530;18.620;2022-10-16T16:15:24;18.40;99.90
36416;DHT22;22447;44.530;18.620;2022-10-16T16:17:50;18.30;99.90
36416;DHT22;22447;44.530;18.620;2022-10-16T16:20:16;18.20;99.90
36416;DHT22;22447;44.530;18.620;2022-10-16T16:22:42;18.00;99.90
36416;DHT22;22447;44.530;18.620;2022-10-16T16:25:08;17.90;99.90
36416;DHT22;22447;44.530;18.620;2022-10-16T16:27:34;17.90;99.90
36416;DHT22;22447;44.530;18.620;2022-10-16T16:30:01;17.70;99.90
36416;DHT22;22447;44.530;18.620;2022-10-16T16:32:29;17.70;99.90
36416;DHT22;22447;44.530;18.620;2022-10-16T16:34:55;17.60;99.90
36416;DHT22;22447;44.530;18.620;2022-10-16T16:37:21;17.50;99.90
36416;DHT22;22447;44.530;18.620;2022-10-16T16:39:47;17.40;99.90
36416;DHT22;22447;44.530;18.620;2022-10-16T16:42:12;17.40;99.90
36416;DHT22;22447;44.530;18.620;2022-10-16T16:44:38;17.20;99.90
36416;DHT22;22447;44.530;18.620;2022-10-16T16:47:05;17.20;99.90
36416;DHT22;22447;44.530;18.620;2022-10-16T16:49:31;17.00;99.90
36416;DHT22;22447;44.530;18.620;2022-10-16T16:51:57;16.90;99.90
36416;DHT22;22447;44.530;18.620;2022-10-16T16:54:23;16.70;99.90
36416;DHT22;22447;44.530;18.620;2022-10-16T16:56:49;16.60;99.90
36416;DHT22;22447;44.530;18.620;2022-10-16T16:59:18;16.50;99.90
36416;DHT22;22447;44.530;18.620;2022-10-16T17:01:46;16.40;99.90